Time;durP1;ratioP1;P1;durP2;ratioP2;P2;SDS_P1;SDS_P2;PMS_P1;PMS_P2;Temp;Humidity;BMP_temperature;BMP_pressure;BME280_temperature;BME280_humidity;BME280_pressure;Samples;Min_cycle;Max_cycle;Signal;HPM_P1;HPM_P2
2023/11/13 00:01:16;;;;;;;2.70;2.42;;;;;9.40;97846.00;;;;4938339;29;20042;-64
2023/11/13 00:03:42;;;;;;;4.18;2.40;;;;;9.50;97851.00;;;;4937690;29;20048;-64
2023/11/13 00:06:10;;;;;;;2.75;2.55;;;;;9.50;97845.00;;;;4938054;29;20050;-64
2023/11/13 00:08:36;;;;;;;2.70;2.50;;;;;9.60;97844.00;;;;4938372;29;20560;-63
2023/11/13 00:11:04;;;;;;;2.92;2.70;;;;;9.60;97824.00;;;;4938206;29;20048;-64
2023/11/13 00:13:31;;;;;;;2.75;2.33;;;;;9.40;97826.00;;;;4937520;29;20553;-63
2023/11/13 00:15:58;;;;;;;2.95;2.67;;;;;9.20;97822.00;;;;4938208;29;20095;-61
2023/11/13 00:18:25;;;;;;;2.75;2.53;;;;;9.00;97827.00;;;;4938268;29;20047;-64
2023/11/13 00:20:52;;;;;;;3.20;2.90;;;;;8.90;97819.00;;;;4936798;29;20052;-62
2023/11/13 00:23:19;;;;;;;7.47;3.40;;;;;8.90;97806.00;;;;4937860;29;20131;-65
2023/11/13 00:25:45;;;;;;;3.75;3.05;;;;;8.90;97804.00;;;;4937442;29;20043;-62
2023/11/13 00:28:12;;;;;;;5.55;4.13;;;;;8.80;97799.00;;;;4937923;29;20039;-62
2023/11/13 00:30:39;;;;;;;5.45;4.38;;;;;8.80;97804.00;;;;4937743;29;20056;-62
2023/11/13 00:33:06;;;;;;;7.10;4.03;;;;;8.80;97801.00;;;;4937858;29;20114;-62
2023/11/13 00:35:32;;;;;;;4.05;3.65;;;;;8.70;97801.00;;;;4937101;29;20054;-61
2023/11/13 00:37:59;;;;;;;4.55;3.90;;;;;8.70;97794.00;;;;4937987;29;20054;-63
2023/11/13 00:40:26;;;;;;;4.95;3.80;;;;;8.70;97801.00;;;;4937794;29;20040;-62
2023/11/13 00:42:52;;;;;;;4.70;4.20;;;;;8.60;97801.00;;;;4937567;29;20063;-62
2023/11/13 00:45:19;;;;;;;4.38;3.80;;;;;8.70;97804.00;;;;4937288;29;20055;-62
2023/11/13 00:47:45;;;;;;;4.22;3.50;;;;;8.70;97803.00;;;;4936432;29;20063;-62
2023/11/13 00:50:12;;;;;;;7.85;3.65;;;;;8.70;97807.00;;;;4937585;29;20047;-62
2023/11/13 00:52:39;;;;;;;5.20;3.50;;;;;8.70;97811.00;;;;4936273;29;20420;-62
2023/11/13 00:55:07;;;;;;;4.80;3.45;;;;;8.70;97810.00;;;;4936750;29;20044;-62
2023/11/13 00:57:33;;;;;;;5.53;3.75;;;;;8.80;97796.00;;;;4936120;29;20040;-65
2023/11/13 01:00:03;;;;;;;5.45;3.67;;;;;8.80;97782.00;;;;4937127;29;20185;-62
2023/11/13 01:02:30;;;;;;;4.80;3.60;;;;;8.80;97776.00;;;;4935706;29;20057;-62
2023/11/13 01:04:57;;;;;;;4.50;3.40;;;;;8.90;97779.00;;;;4936625;29;20048;-61
2023/11/13 01:07:25;;;;;;;4.10;3.67;;;;;9.00;97779.00;;;;4936160;29;20087;-62
2023/11/13 01:09:52;;;;;;;4.45;3.70;;;;;8.90;97761.00;;;;4935941;29;20447;-64
2023/11/13 01:12:20;;;;;;;3.88;3.40;;;;;8.90;97758.00;;;;4937163;29;20054;-62
2023/11/13 01:14:47;;;;;;;3.83;3.53;;;;;8.80;97766.00;;;;4936231;29;20043;-62
2023/11/13 01:17:13;;;;;;;3.80;3.35;;;;;8.80;97761.00;;;;4937088;29;20048;-62
2023/11/13 01:19:40;;;;;;;3.72;3.20;;;;;8.80;97774.00;;;;4936047;29;20401;-62
2023/11/13 01:22:07;;;;;;;4.32;3.53;;;;;8.70;97771.00;;;;4936842;29;20067;-62
2023/11/13 01:24:34;;;;;;;3.75;3.45;;;;;8.60;97777.00;;;;4919750;29;20149;-61
2023/11/13 01:27:00;;;;;;;4.28;3.65;;;;;8.60;97770.00;;;;4937300;29;20054;-61
2023/11/13 01:29:27;;;;;;;3.45;3.15;;;;;8.60;97773.00;;;;4935704;29;20417;-64
2023/11/13 01:31:54;;;;;;;4.35;3.60;;;;;8.60;97775.00;;;;4935864;29;20143;-64
2023/11/13 01:34:21;;;;;;;3.97;2.97;;;;;8.70;97781.00;;;;4936187;29;20044;-63
2023/11/13 01:36:47;;;;;;;3.20;2.88;;;;;8.70;97774.00;;;;4935430;29;20058;-64
2023/11/13 01:39:14;;;;;;;3.95;2.88;;;;;8.80;97774.00;;;;4936611;29;20091;-65
2023/11/13 01:41:42;;;;;;;3.65;3.03;;;;;8.90;97770.00;;;;4936512;29;20135;-65
2023/11/13 01:44:09;;;;;;;2.60;2.40;;;;;8.90;97761.00;;;;4934532;29;20055;-65
2023/11/13 01:46:35;;;;;;;3.30;2.95;;;;;9.00;97753.00;;;;4936452;29;20497;-63
2023/11/13 01:49:04;;;;;;;3.10;2.55;;;;;9.00;97754.00;;;;4937144;29;20524;-65
2023/11/13 01:51:32;;;;;;;2.75;2.55;;;;;9.00;97755.00;;;;4936501;29;20511;-62
2023/11/13 01:53:59;;;;;;;3.60;3.25;;;;;9.10;97753.00;;;;4934620;29;20048;-63
2023/11/13 01:56:28;;;;;;;3.72;2.90;;;;;9.10;97749.00;;;;4936261;29;20049;-63
2023/11/13 01:58:56;;;;;;;3.05;2.63;;;;;9.20;97735.00;;;;4934982;29;20048;-64
2023/11/13 02:01:25;;;;;;;3.58;3.13;;;;;9.10;97724.00;;;;4935060;29;20531;-63
2023/11/13 02:03:55;;;;;;;3.38;3.05;;;;;9.10;97723.00;;;;4934410;29;20138;-64
2023/11/13 02:06:22;;;;;;;2.60;2.40;;;;;9.10;97719.00;;;;4934692;29;20047;-66
2023/11/13 02:08:49;;;;;;;5.78;2.60;;;;;9.10;97724.00;;;;4936258;29;20508;-64
2023/11/13 02:11:17;;;;;;;3.58;2.65;;;;;9.10;97709.00;;;;4936221;29;20047;-64
2023/11/13 02:13:45;;;;;;;2.85;2.30;;;;;9.10;97713.00;;;;4934495;29;20095;-64
2023/11/13 02:16:12;;;;;;;4.60;2.58;;;;;9.10;97702.00;;;;4936381;29;20130;-65
2023/11/13 02:18:39;;;;;;;2.75;2.42;;;;;9.20;97698.00;;;;4935889;29;20071;-65
2023/11/13 02:21:07;;;;;;;2.72;2.40;;;;;9.30;97687.00;;;;4934589;29;20138;-65
2023/11/13 02:23:33;;;;;;;2.42;2.20;;;;;9.30;97704.00;;;;4933754;29;20051;-65
2023/11/13 02:26:06;;;;;;;3.47;2.72;;;;;9.40;97709.00;;;;4934584;29;20043;-65
2023/11/13 02:28:33;;;;;;;2.83;2.33;;;;;9.30;97706.00;;;;4935872;29;20131;-65
2023/11/13 02:30:59;;;;;;;3.80;2.53;;;;;9.30;97683.00;;;;4934449;29;20480;-65
2023/11/13 02:33:26;;;;;;;2.47;2.20;;;;;9.30;97694.00;;;;4935158;29;20043;-65
2023/11/13 02:35:53;;;;;;;4.32;2.22;;;;;9.30;97711.00;;;;4934224;29;20059;-64
2023/11/13 02:38:19;;;;;;;3.97;3.13;;;;;9.40;97717.00;;;;4934211;29;20087;-65
2023/11/13 02:40:46;;;;;;;3.90;2.80;;;;;9.50;97719.00;;;;4935814;29;20048;-64
2023/11/13 02:43:12;;;;;;;2.85;2.50;;;;;9.50;97723.00;;;;4934054;29;20058;-64
2023/11/13 02:45:40;;;;;;;5.20;2.95;;;;;9.60;97716.00;;;;4934787;29;20464;-64
2023/11/13 02:48:07;;;;;;;4.15;3.20;;;;;9.70;97712.00;;;;4934312;29;20608;-65
2023/11/13 02:50:33;;;;;;;4.35;2.85;;;;;9.70;97707.00;;;;4934019;29;20056;-64
2023/11/13 02:53:00;;;;;;;3.70;2.72;;;;;9.80;97705.00;;;;4934091;29;20043;-65
2023/11/13 02:55:27;;;;;;;3.35;2.83;;;;;9.80;97703.00;;;;4933308;29;20047;-64
2023/11/13 02:57:54;;;;;;;3.58;2.92;;;;;9.70;97700.00;;;;4935376;29;20063;-64
2023/11/13 03:00:21;;;;;;;3.25;2.95;;;;;9.60;97702.00;;;;4933828;29;20094;-64
2023/11/13 03:02:48;;;;;;;4.07;3.13;;;;;9.60;97710.00;;;;4918230;29;20600;-64
2023/11/13 03:05:16;;;;;;;4.85;2.80;;;;;9.60;97715.00;;;;4933099;29;20055;-64
2023/11/13 03:07:43;;;;;;;3.00;2.42;;;;;9.70;97719.00;;;;4935187;29;20051;-64
2023/11/13 03:10:10;;;;;;;2.17;1.98;;;;;9.90;97724.00;;;;4935042;29;20123;-64
2023/11/13 03:12:40;;;;;;;1.50;1.40;;;;;10.00;97722.00;;;;4934003;29;20533;-64
2023/11/13 03:15:09;;;;;;;2.00;1.80;;;;;10.10;97718.00;;;;4933063;29;20512;-64
2023/11/13 03:17:36;;;;;;;1.83;1.45;;;;;10.20;97734.00;;;;4933884;29;20047;-64
2023/11/13 03:20:03;;;;;;;2.20;1.70;;;;;10.30;97729.00;;;;4934915;29;20055;-64
2023/11/13 03:22:30;;;;;;;1.58;1.48;;;;;10.30;97733.00;;;;4933689;29;20126;-64
2023/11/13 03:24:56;;;;;;;2.15;1.40;;;;;10.30;97736.00;;;;4934118;29;20047;-64
2023/11/13 03:27:23;;;;;;;1.92;1.70;;;;;10.30;97739.00;;;;4935035;29;20453;-64
2023/11/13 03:29:50;;;;;;;1.90;1.40;;;;;10.30;97736.00;;;;4934815;29;20063;-64
2023/11/13 03:32:17;;;;;;;3.10;1.80;;;;;10.30;97743.00;;;;4934748;29;20490;-64
2023/11/13 03:34:44;;;;;;;3.25;2.42;;;;;10.30;97741.00;;;;4933068;29;20055;-64
2023/11/13 03:37:11;;;;;;;3.50;2.55;;;;;10.20;97743.00;;;;4933418;29;20150;-64
2023/11/13 03:39:37;;;;;;;3.53;2.28;;;;;10.20;97735.00;;;;4934753;29;20173;-64
2023/11/13 03:42:04;;;;;;;5.72;2.55;;;;;10.20;97742.00;;;;4933480;29;20513;-62
2023/11/13 03:44:31;;;;;;;7.22;2.80;;;;;10.20;97740.00;;;;4933961;29;20130;-64
2023/11/13 03:46:57;;;;;;;3.03;2.58;;;;;10.20;97746.00;;;;4934628;29;20100;-64
2023/11/13 03:49:24;;;;;;;3.83;2.65;;;;;10.20;97742.00;;;;4933795;29;20047;-64
2023/11/13 03:51:53;;;;;;;4.43;2.45;;;;;10.10;97738.00;;;;4933410;29;20048;-64
2023/11/13 03:54:20;;;;;;;4.00;2.63;;;;;10.20;97741.00;;;;4932830;29;20408;-65
2023/11/13 03:56:46;;;;;;;3.60;2.80;;;;;10.20;97737.00;;;;4935006;29;20048;-65
2023/11/13 03:59:13;;;;;;;5.05;3.00;;;;;10.20;97745.00;;;;4933324;29;20284;-64
2023/11/13 04:01:40;;;;;;;3.10;2.80;;;;;10.20;97746.00;;;;4934560;29;20477;-65
2023/11/13 04:04:08;;;;;;;3.00;2.63;;;;;10.20;97747.00;;;;4932836;29;20503;-65
2023/11/13 04:06:35;;;;;;;3.60;2.70;;;;;10.30;97736.00;;;;4934464;29;20059;-63
2023/11/13 04:09:02;;;;;;;3.92;2.97;;;;;10.30;97740.00;;;;4933230;29;20052;-64
2023/11/13 04:11:28;;;;;;;4.18;2.50;;;;;10.40;97741.00;;;;4934394;29;20091;-64
2023/11/13 04:13:56;;;;;;;5.50;2.50;;;;;10.40;97750.00;;;;4932384;29;20056;-62
2023/11/13 04:16:22;;;;;;;2.25;2.00;;;;;10.50;97754.00;;;;4933511;29;20524;-63
2023/11/13 04:18:49;;;;;;;3.45;2.15;;;;;10.60;97765.00;;;;4934368;29;20044;-63
2023/11/13 04:21:16;;;;;;;2.15;1.38;;;;;10.70;97775.00;;;;4934415;29;20050;-64
2023/11/13 04:23:44;;;;;;;2.30;1.20;;;;;10.80;97771.00;;;;4916642;29;20086;-64
2023/11/13 04:26:10;;;;;;;2.00;1.20;;;;;10.90;97772.00;;;;4933234;29;20048;-63
2023/11/13 04:28:37;;;;;;;3.25;1.33;;;;;11.10;97777.00;;;;4934313;29;20047;-63
2023/11/13 04:31:08;;;;;;;2.35;1.00;;;;;11.20;97772.00;;;;4933113;29;20048;-64
2023/11/13 04:33:35;;;;;;;3.63;1.38;;;;;11.30;97772.00;;;;4933827;29;20040;-64
2023/11/13 04:36:02;;;;;;;7.00;1.20;;;;;11.30;97772.00;;;;4935252;29;20047;-62
2023/11/13 04:38:29;;;;;;;5.65;1.30;;;;;11.40;97769.00;;;;4937768;29;20095;-64
2023/11/13 04:40:57;;;;;;;3.55;1.50;;;;;11.50;97785.00;;;;4937702;29;20067;-64
2023/11/13 04:43:25;;;;;;;3.58;1.60;;;;;11.50;97780.00;;;;4935693;29;20123;-60
2023/11/13 04:45:52;;;;;;;6.07;1.85;;;;;11.60;97784.00;;;;4937498;29;20052;-64
2023/11/13 04:48:20;;;;;;;6.07;1.80;;;;;11.60;97784.00;;;;4937678;29;20043;-64
2023/11/13 04:50:47;;;;;;;6.45;2.03;;;;;11.60;97783.00;;;;4936266;29;20453;-64
2023/11/13 04:53:14;;;;;;;5.65;1.70;;;;;11.70;97771.00;;;;4936293;29;20048;-64
2023/11/13 04:55:41;;;;;;;12.82;1.80;;;;;11.70;97772.00;;;;4936709;29;20576;-64
2023/11/13 04:58:08;;;;;;;8.68;2.13;;;;;11.70;97766.00;;;;4937424;29;20139;-64
2023/11/13 05:00:34;;;;;;;8.48;2.25;;;;;11.70;97773.00;;;;4937080;29;20047;-63
2023/11/13 05:03:01;;;;;;;10.82;2.80;;;;;11.70;97778.00;;;;4937165;29;20086;-63
2023/11/13 05:05:29;;;;;;;11.00;2.17;;;;;11.80;97787.00;;;;4936518;29;20493;-64
2023/11/13 05:07:56;;;;;;;14.30;3.13;;;;;11.70;97795.00;;;;4937086;29;20056;-64
2023/11/13 05:10:23;;;;;;;8.55;3.05;;;;;11.80;97788.00;;;;4936991;29;20095;-64
2023/11/13 05:12:49;;;;;;;14.75;3.80;;;;;11.80;97784.00;;;;4936977;29;20485;-64
2023/11/13 05:15:16;;;;;;;15.23;7.43;;;;;11.80;97780.00;;;;4935034;29;20421;-64
2023/11/13 05:17:43;;;;;;;10.30;2.95;;;;;11.80;97782.00;;;;4935808;29;20110;-63
2023/11/13 05:20:10;;;;;;;12.35;2.53;;;;;11.80;97787.00;;;;4935579;29;20051;-64
2023/11/13 05:22:36;;;;;;;12.25;3.33;;;;;11.80;97791.00;;;;4936792;29;20051;-63
2023/11/13 05:25:03;;;;;;;10.23;2.78;;;;;11.80;97788.00;;;;4936166;29;20062;-64
2023/11/13 05:27:30;;;;;;;16.10;2.72;;;;;11.80;97809.00;;;;4936791;29;20054;-64
2023/11/13 05:29:57;;;;;;;16.23;3.33;;;;;11.80;97791.00;;;;4936724;29;20052;-64
2023/11/13 05:32:23;;;;;;;17.05;3.35;;;;;11.80;97794.00;;;;4936807;29;20055;-64
2023/11/13 05:34:50;;;;;;;11.40;3.10;;;;;11.90;97798.00;;;;4935969;29;20103;-63
2023/11/13 05:37:16;;;;;;;10.55;3.28;;;;;11.80;97810.00;;;;4936455;29;20565;-63
2023/11/13 05:39:43;;;;;;;15.15;3.05;;;;;11.90;97810.00;;;;4919627;29;20062;-64
2023/11/13 05:42:10;;;;;;;13.50;2.70;;;;;11.80;97822.00;;;;4936533;29;20047;-62
2023/11/13 05:44:36;;;;;;;16.88;3.90;;;;;11.80;97815.00;;;;4935918;29;20083;-63
2023/11/13 05:47:03;;;;;;;22.58;5.07;;;;;11.80;97816.00;;;;4936267;29;20043;-64
2023/11/13 05:49:33;;;;;;;20.58;6.53;;;;;11.90;97814.00;;;;4936359;29;20405;-64
2023/11/13 05:52:01;;;;;;;20.90;4.45;;;;;11.80;97808.00;;;;4934984;29;20066;-64
2023/11/13 05:54:27;;;;;;;16.58;3.90;;;;;11.90;97800.00;;;;4935559;29;20036;-64
2023/11/13 05:56:54;;;;;;;14.75;4.47;;;;;11.90;97801.00;;;;4936249;29;20047;-64
2023/11/13 05:59:21;;;;;;;15.07;3.45;;;;;11.90;97803.00;;;;4936204;29;20399;-64
2023/11/13 06:01:49;;;;;;;17.67;4.07;;;;;11.90;97804.00;;;;4936268;29;20067;-64
2023/11/13 06:04:16;;;;;;;14.13;4.03;;;;;11.90;97804.00;;;;4935395;29;20047;-63
2023/11/13 06:06:46;;;;;;;17.50;3.90;;;;;11.90;97814.00;;;;4935896;29;20066;-63
2023/11/13 06:09:13;;;;;;;22.42;5.57;;;;;11.90;97820.00;;;;4934838;29;20656;-63
2023/11/13 06:11:40;;;;;;;18.48;4.18;;;;;11.90;97818.00;;;;4936201;29;20055;-64
2023/11/13 06:14:06;;;;;;;21.60;4.57;;;;;11.90;97824.00;;;;4935262;29;20054;-63
2023/11/13 06:16:33;;;;;;;15.70;3.88;;;;;11.90;97823.00;;;;4934608;29;20480;-64
2023/11/13 06:19:01;;;;;;;21.70;4.63;;;;;11.90;97828.00;;;;4935800;29;20123;-64
2023/11/13 06:21:28;;;;;;;17.95;4.90;;;;;11.90;97833.00;;;;4934493;29;20051;-64
2023/11/13 06:23:55;;;;;;;14.43;4.60;;;;;11.90;97835.00;;;;4935106;29;20124;-63
2023/11/13 06:26:21;;;;;;;20.95;5.22;;;;;12.00;97837.00;;;;4934635;29;20054;-64
2023/11/13 06:28:48;;;;;;;22.42;5.07;;;;;12.00;97833.00;;;;4935702;29;20050;-64
2023/11/13 06:31:14;;;;;;;21.10;4.22;;;;;12.00;97844.00;;;;4935502;29;20048;-64
2023/11/13 06:33:43;;;;;;;14.57;4.70;;;;;12.00;97840.00;;;;4934781;29;20074;-64
2023/11/13 06:36:10;;;;;;;15.77;3.83;;;;;12.10;97840.00;;;;4935828;29;20052;-64
2023/11/13 06:38:37;;;;;;;15.43;4.32;;;;;12.00;97837.00;;;;4935417;29;20055;-64
2023/11/13 06:41:04;;;;;;;20.38;5.22;;;;;12.10;97839.00;;;;4935411;29;20394;-64
2023/11/13 06:43:32;;;;;;;17.25;4.90;;;;;12.00;97838.00;;;;4934709;29;20047;-64
2023/11/13 06:46:00;;;;;;;14.20;4.10;;;;;12.00;97841.00;;;;4934093;29;20048;-63
2023/11/13 06:48:27;;;;;;;16.92;4.22;;;;;12.10;97834.00;;;;4935334;29;20173;-64
2023/11/13 06:50:53;;;;;;;18.65;4.45;;;;;12.00;97829.00;;;;4935326;29;20047;-64
2023/11/13 06:53:20;;;;;;;17.65;4.30;;;;;12.00;97825.00;;;;4935033;29;20123;-64
2023/11/13 06:55:47;;;;;;;19.00;4.35;;;;;12.00;97830.00;;;;4934902;29;20154;-64
2023/11/13 06:58:15;;;;;;;22.02;10.95;;;;;12.10;97830.00;;;;4934584;29;20055;-64
2023/11/13 07:00:41;;;;;;;18.35;6.05;;;;;12.10;97825.00;;;;4935011;29;20103;-65
2023/11/13 07:03:10;;;;;;;18.73;4.53;;;;;12.10;97838.00;;;;4935114;29;20115;-64
2023/11/13 07:05:37;;;;;;;20.98;4.57;;;;;12.10;97827.00;;;;4934059;29;20054;-64
2023/11/13 07:08:04;;;;;;;18.83;4.72;;;;;12.10;97820.00;;;;4933605;29;20055;-64
2023/11/13 07:10:34;;;;;;;20.48;4.60;;;;;12.10;97819.00;;;;4935124;29;20044;-64
2023/11/13 07:13:01;;;;;;;20.20;3.85;;;;;12.10;97810.00;;;;4935048;29;20131;-64
2023/11/13 07:15:29;;;;;;;19.52;5.15;;;;;12.10;97822.00;;;;4934243;29;20052;-64
2023/11/13 07:17:57;;;;;;;19.77;4.70;;;;;12.10;97836.00;;;;4933752;29;20043;-62
2023/11/13 07:20:23;;;;;;;20.48;3.92;;;;;12.20;97833.00;;;;4934848;29;20051;-64
2023/11/13 07:22:52;;;;;;;15.70;4.05;;;;;12.20;97825.00;;;;4934916;29;20075;-64
2023/11/13 07:25:19;;;;;;;18.73;4.78;;;;;12.20;97823.00;;;;4934130;29;20044;-64
2023/11/13 07:27:46;;;;;;;18.38;4.50;;;;;12.30;97826.00;;;;4934831;29;20051;-64
2023/11/13 07:30:12;;;;;;;17.88;4.70;;;;;12.30;97824.00;;;;4934796;29;20111;-63
2023/11/13 07:32:39;;;;;;;17.20;3.92;;;;;12.30;97812.00;;;;4934744;29;20052;-64
2023/11/13 07:35:07;;;;;;;17.73;4.78;;;;;12.40;97824.00;;;;4934053;29;20040;-64
2023/11/13 07:37:34;;;;;;;15.48;3.92;;;;;12.40;97817.00;;;;4934679;29;20044;-64
2023/11/13 07:40:02;;;;;;;15.85;4.80;;;;;12.40;97839.00;;;;4934717;29;20095;-64
2023/11/13 07:42:29;;;;;;;16.95;3.95;;;;;12.40;97839.00;;;;4934734;29;20067;-64
2023/11/13 07:44:58;;;;;;;17.20;3.97;;;;;12.30;97833.00;;;;4932972;29;20085;-64
2023/11/13 07:47:27;;;;;;;13.23;3.72;;;;;12.30;97830.00;;;;4934800;29;20135;-64
2023/11/13 07:49:57;;;;;;;13.35;3.42;;;;;12.30;97834.00;;;;4933357;29;20521;-64
2023/11/13 07:52:28;;;;;;;10.45;3.85;;;;;12.30;97828.00;;;;4933452;29;20113;-64
2023/11/13 07:54:56;;;;;;;9.10;3.63;;;;;12.30;97824.00;;;;4933891;29;20051;-64
2023/11/13 07:57:23;;;;;;;10.80;2.88;;;;;12.30;97821.00;;;;4934771;29;20044;-65
2023/11/13 07:59:51;;;;;;;13.68;2.78;;;;;12.20;97829.00;;;;4934613;29;20048;-64
2023/11/13 08:02:19;;;;;;;12.48;3.15;;;;;12.20;97810.00;;;;4933476;29;20435;-64
2023/11/13 08:04:46;;;;;;;7.93;2.67;;;;;12.30;97809.00;;;;4933860;29;20048;-64
2023/11/13 08:07:13;;;;;;;6.78;2.90;;;;;12.30;97812.00;;;;4917459;29;20598;-64
2023/11/13 08:09:50;;;;;;;11.68;4.30;;;;;12.20;97822.00;;;;4934574;29;20088;-64
2023/11/13 08:12:18;;;;;;;9.40;3.03;;;;;12.20;97810.00;;;;4937552;29;20126;-65
2023/11/13 08:14:46;;;;;;;8.35;3.10;;;;;12.30;97794.00;;;;4937571;29;20039;-64
2023/11/13 08:17:13;;;;;;;11.38;3.22;;;;;12.40;97783.00;;;;4938155;29;20058;-64
2023/11/13 08:19:41;;;;;;;5.95;2.90;;;;;12.40;97777.00;;;;4938065;29;20047;-63
2023/11/13 08:22:08;;;;;;;10.30;3.40;;;;;12.40;97774.00;;;;4938189;29;20047;-63
2023/11/13 08:24:35;;;;;;;6.22;2.90;;;;;12.30;97768.00;;;;4937420;29;20063;-64
2023/11/13 08:27:03;;;;;;;9.65;4.70;;;;;12.20;97767.00;;;;4938140;29;20047;-65
2023/11/13 08:29:32;;;;;;;10.38;3.33;;;;;12.20;97755.00;;;;4936944;29;20051;-64
2023/11/13 08:32:00;;;;;;;7.03;1.80;;;;;12.20;97760.00;;;;4936599;29;20507;-64
2023/11/13 08:34:27;;;;;;;5.20;1.98;;;;;12.10;97749.00;;;;4936928;29;20091;-64
2023/11/13 08:36:53;;;;;;;5.78;1.90;;;;;12.10;97740.00;;;;4937627;29;20457;-64
2023/11/13 08:39:22;;;;;;;8.32;2.70;;;;;12.10;97742.00;;;;4936485;29;20107;-64
2023/11/13 08:41:49;;;;;;;8.52;2.30;;;;;12.10;97733.00;;;;4937860;29;20056;-63
2023/11/13 08:44:15;;;;;;;7.20;1.88;;;;;12.20;97729.00;;;;4936947;29;20044;-64
2023/11/13 08:46:42;;;;;;;5.78;1.90;;;;;12.20;97727.00;;;;4936307;29;20477;-64
2023/11/13 08:49:09;;;;;;;5.43;2.13;;;;;12.30;97722.00;;;;4937541;29;20543;-63
2023/11/13 08:51:38;;;;;;;7.57;2.58;;;;;12.30;97728.00;;;;4937677;29;20544;-64
2023/11/13 08:54:05;;;;;;;5.95;1.83;;;;;12.30;97722.00;;;;4935537;29;20134;-63
2023/11/13 08:56:32;;;;;;;7.45;2.33;;;;;12.20;97712.00;;;;4936058;29;20469;-64
2023/11/13 08:58:59;;;;;;;7.90;2.80;;;;;12.10;97711.00;;;;4937501;29;20444;-64
2023/11/13 09:01:28;;;;;;;4.63;2.42;;;;;12.10;97709.00;;;;4937123;29;20095;-64
2023/11/13 09:03:55;;;;;;;6.35;2.67;;;;;12.10;97713.00;;;;4936440;29;20511;-64
2023/11/13 09:06:22;;;;;;;7.47;3.45;;;;;12.10;97717.00;;;;4937090;29;20054;-63
2023/11/13 09:08:53;;;;;;;7.45;2.85;;;;;12.10;97717.00;;;;4937297;29;20126;-64
2023/11/13 09:11:21;;;;;;;5.53;2.30;;;;;12.20;97714.00;;;;4936069;29;20050;-64
2023/11/13 09:13:48;;;;;;;7.38;2.20;;;;;12.20;97716.00;;;;4936479;29;20044;-64
2023/11/13 09:16:15;;;;;;;6.97;2.50;;;;;12.20;97709.00;;;;4936929;29;20054;-64
2023/11/13 09:18:42;;;;;;;8.23;1.95;;;;;12.30;97706.00;;;;4936817;29;20075;-64
2023/11/13 09:21:08;;;;;;;9.05;3.20;;;;;12.30;97714.00;;;;4936633;29;20048;-63
2023/11/13 09:23:36;;;;;;;26.85;8.23;;;;;12.40;97703.00;;;;4935998;29;20054;-64
2023/11/13 09:26:04;;;;;;;8.57;3.40;;;;;12.40;97714.00;;;;4937052;29;20047;-64
2023/11/13 09:28:33;;;;;;;16.55;5.13;;;;;12.50;97705.00;;;;4936737;29;20433;-64
2023/11/13 09:31:00;;;;;;;12.45;3.72;;;;;12.50;97708.00;;;;4936873;29;20155;-64
2023/11/13 09:33:28;;;;;;;13.15;4.10;;;;;12.60;97702.00;;;;4936269;29;20453;-64
2023/11/13 09:35:55;;;;;;;6.97;3.00;;;;;12.70;97708.00;;;;4936553;29;20121;-63
2023/11/13 09:38:22;;;;;;;9.60;4.35;;;;;12.70;97693.00;;;;4935457;29;20107;-61
2023/11/13 09:40:53;;;;;;;10.73;3.78;;;;;12.80;97681.00;;;;4936835;29;20452;-62
2023/11/13 09:43:39;;;;;;;6.90;3.35;;;;;12.90;97686.00;;;;4936390;29;20408;-65
2023/11/13 09:46:08;;;;;;;13.82;5.32;;;;;13.00;97681.00;;;;4936509;29;20442;-62
2023/11/13 09:48:43;;;;;;;13.98;3.90;;;;;13.10;97669.00;;;;4935214;29;20051;-62
2023/11/13 09:51:16;;;;;;;8.32;3.22;;;;;13.10;97659.00;;;;4935308;29;20143;-61
2023/11/13 09:53:57;;;;;;;11.43;4.15;;;;;13.20;97665.00;;;;4934469;29;20147;-62
2023/11/13 09:56:27;;;;;;;7.18;3.58;;;;;13.30;97661.00;;;;4935429;29;20052;-62
2023/11/13 09:58:57;;;;;;;7.43;3.00;;;;;13.40;97661.00;;;;4936352;29;20048;-62
2023/11/13 10:01:24;;;;;;;10.57;2.95;;;;;13.40;97662.00;;;;4937198;29;20493;-62
2023/11/13 10:03:51;;;;;;;6.43;2.58;;;;;13.50;97638.00;;;;4937550;29;20048;-62
2023/11/13 10:06:18;;;;;;;8.00;2.95;;;;;13.50;97650.00;;;;4939848;29;20043;-62
2023/11/13 10:08:47;;;;;;;6.47;2.30;;;;;13.60;97632.00;;;;4939910;29;20055;-63
2023/11/13 10:11:14;;;;;;;9.93;5.03;;;;;13.70;97635.00;;;;4938870;29;20074;-62
2023/11/13 10:13:41;;;;;;;11.18;5.70;;;;;13.70;97634.00;;;;4939171;29;20083;-62
2023/11/13 10:16:23;;;;;;;6.45;2.38;;;;;13.80;97632.00;;;;4939606;29;20103;-62
2023/11/13 10:18:50;;;;;;;8.20;2.42;;;;;13.80;97623.00;;;;4942165;29;20082;-62
2023/11/13 10:21:31;;;;;;;5.22;2.55;;;;;13.80;97625.00;;;;4938233;29;20047;-62
2023/11/13 10:24:19;;;;;;;6.85;2.90;;;;;13.80;97633.00;;;;4936489;29;20047;-62
2023/11/13 10:27:06;;;;;;;15.57;5.18;;;;;13.90;97633.00;;;;4935833;29;20044;-62
2023/11/13 10:29:34;;;;;;;11.02;3.85;;;;;13.90;97639.00;;;;4920198;29;20147;-62
2023/11/13 10:32:03;;;;;;;8.40;3.30;;;;;13.90;97626.00;;;;4937541;29;20075;-63
2023/11/13 10:34:45;;;;;;;6.65;1.80;;;;;14.00;97610.00;;;;4936828;29;20043;-63
2023/11/13 10:37:15;;;;;;;8.00;2.78;;;;;14.00;97619.00;;;;4939676;29;20062;-63
2023/11/13 10:39:42;;;;;;;7.45;2.30;;;;;14.00;97629.00;;;;4940476;29;20079;-64
2023/11/13 10:42:16;;;;;;;4.20;2.15;;;;;14.00;97629.00;;;;4939828;29;20047;-63
2023/11/13 10:44:43;;;;;;;4.90;2.10;;;;;14.00;97620.00;;;;4936116;29;20152;-62
2023/11/13 10:47:21;;;;;;;8.07;2.83;;;;;14.00;97607.00;;;;4937446;29;20043;-62
2023/11/13 10:49:52;;;;;;;5.65;2.55;;;;;14.10;97605.00;;;;4937300;29;20048;-62
2023/11/13 10:52:22;;;;;;;4.93;1.60;;;;;14.10;97605.00;;;;4935564;29;20062;-63
2023/11/13 10:54:55;;;;;;;5.30;2.42;;;;;14.20;97599.00;;;;4935173;29;20527;-62
2023/11/13 10:57:23;;;;;;;9.10;3.45;;;;;14.20;97597.00;;;;4935894;29;20070;-63
2023/11/13 10:59:52;;;;;;;4.85;2.92;;;;;14.20;97587.00;;;;4935681;29;20556;-62
2023/11/13 11:02:30;;;;;;;4.32;2.20;;;;;14.20;97601.00;;;;4934332;29;20134;-62
2023/11/13 11:05:11;;;;;;;7.28;3.60;;;;;14.20;97581.00;;;;4935096;29;20043;-63
2023/11/13 11:07:38;;;;;;;4.85;1.75;;;;;14.20;97568.00;;;;4935768;29;20059;-63
2023/11/13 11:10:06;;;;;;;3.22;1.38;;;;;14.20;97565.00;;;;4935335;29;20485;-63
2023/11/13 11:12:47;;;;;;;3.60;1.35;;;;;14.30;97547.00;;;;4935123;29;20067;-63
2023/11/13 11:15:52;;;;;;;3.95;2.20;;;;;14.30;97543.00;;;;4934387;29;20044;-62
2023/11/13 11:18:31;;;;;;;4.18;1.67;;;;;14.30;97532.00;;;;4933755;29;20420;-63
2023/11/13 11:21:36;;;;;;;5.32;1.92;;;;;14.40;97532.00;;;;4935024;29;20136;-62
2023/11/13 11:24:21;;;;;;;;;;;;;14.50;97532.00;;;;4934730;29;20058;-62
2023/11/13 11:27:00;;;;;;;5.13;1.58;;;;;14.50;97529.00;;;;4935231;29;19922;-62
2023/11/13 11:29:40;;;;;;;4.97;2.13;;;;;14.50;97523.00;;;;4935039;29;20047;-61
2023/11/13 11:32:14;;;;;;;5.63;1.70;;;;;14.50;97527.00;;;;4935309;29;20051;-61
2023/11/13 11:34:42;;;;;;;3.35;1.90;;;;;14.50;97519.00;;;;4933212;29;20141;-61
2023/11/13 11:37:12;;;;;;;2.60;1.58;;;;;14.50;97524.00;;;;4934848;29;20071;-62
2023/11/13 11:39:50;;;;;;;2.83;1.77;;;;;14.50;97520.00;;;;4934777;29;20055;-61
2023/11/13 11:42:18;;;;;;;1.88;1.35;;;;;14.50;97522.00;;;;4934883;29;20039;-62
2023/11/13 11:44:54;;;;;;;2.75;1.60;;;;;14.50;97519.00;;;;4934888;29;20090;-62
2023/11/13 11:47:27;;;;;;;2.65;1.98;;;;;14.50;97517.00;;;;4938763;29;20039;-62
2023/11/13 11:49:57;;;;;;;3.58;2.25;;;;;14.50;97517.00;;;;4938805;29;20135;-61
2023/11/13 11:52:57;;;;;;;6.20;2.50;;;;;14.50;97499.00;;;;4938558;29;20123;-62
2023/11/13 11:55:29;;;;;;;6.72;3.28;;;;;14.50;97495.00;;;;4937937;29;20039;-63
2023/11/13 11:57:56;;;;;;;5.40;2.00;;;;;14.50;97493.00;;;;4938584;29;20051;-62
2023/11/13 12:00:25;;;;;;;5.15;2.22;;;;;14.50;97480.00;;;;4937225;29;20051;-62
2023/11/13 12:02:56;;;;;;;3.45;1.55;;;;;14.60;97477.00;;;;4938404;29;20127;-62
2023/11/13 12:05:23;;;;;;;4.32;2.08;;;;;14.70;97475.00;;;;4936367;29;20126;-62
2023/11/13 12:07:50;;;;;;;4.13;1.20;;;;;14.80;97480.00;;;;4938548;29;20039;-61
2023/11/13 12:10:21;;;;;;;5.72;2.08;;;;;14.80;97475.00;;;;4938202;29;20091;-61
2023/11/13 12:12:49;;;;;;;7.28;2.50;;;;;14.80;97472.00;;;;4938346;29;20473;-61
2023/11/13 12:15:16;;;;;;;4.38;1.45;;;;;14.80;97460.00;;;;4937372;29;20099;-61
2023/11/13 12:17:43;;;;;;;8.27;3.08;;;;;14.80;97469.00;;;;4938131;29;20489;-62
2023/11/13 12:20:14;;;;;;;2.95;1.48;;;;;14.80;97464.00;;;;4936837;29;20493;-61
2023/11/13 12:22:48;;;;;;;4.80;1.65;;;;;14.90;97468.00;;;;4938181;29;20191;-62
2023/11/13 12:25:15;;;;;;;3.92;1.42;;;;;15.00;97463.00;;;;4937360;29;20493;-62